createdAt,value
2023-02-28T00:00:54.962Z,955.1237793
2023-02-28T00:01:55.703Z,955.090332
2023-02-28T00:02:56.347Z,955.1146851
2023-02-28T00:03:57.365Z,955.1048584
2023-02-28T00:04:58.193Z,955.0604858
2023-02-28T00:05:59.259Z,955.086792
2023-02-28T00:07:00.776Z,955.0952148
2023-02-28T00:08:01.650Z,955.1048584
2023-02-28T00:09:02.351Z,955.0923462
2023-02-28T00:10:03.429Z,955.131958
2023-02-28T00:11:04.975Z,955.0870361
2023-02-28T00:12:05.839Z,955.0843506
2023-02-28T00:13:06.540Z,955.1043701
2023-02-28T00:14:07.340Z,955.0931396
2023-02-28T00:15:08.085Z,955.0865479
2023-02-28T00:16:39.837Z,955.0571899
2023-02-28T00:17:41.024Z,955.0388794
2023-02-28T00:18:41.660Z,955.0298462
2023-02-28T00:19:42.352Z,955.0513916
2023-02-28T00:20:43.249Z,955.0271606
2023-02-28T00:21:44.865Z,955.005127
2023-02-28T00:22:45.703Z,954.9822388
2023-02-28T00:23:46.468Z,955.0248413
2023-02-28T00:24:47.143Z,955.0152588
2023-02-28T00:25:48.026Z,955.0203247
2023-02-28T00:26:48.983Z,954.982605
2023-02-28T00:27:49.913Z,954.9699707
2023-02-28T00:28:50.731Z,955.0181274
2023-02-28T00:29:51.549Z,955.0062256
2023-02-28T00:30:53.412Z,954.996582
2023-02-28T00:31:55.119Z,954.9904785
2023-02-28T00:32:55.838Z,955.0279541
2023-02-28T00:33:56.737Z,955.0367432
2023-02-28T00:34:57.506Z,954.9906006
2023-02-28T00:35:58.245Z,955.0518799
2023-02-28T00:36:59.904Z,955.0675659
2023-02-28T00:38:00.762Z,955.0101318
2023-02-28T00:39:01.668Z,954.9779663
2023-02-28T00:40:02.519Z,954.9901733
2023-02-28T00:41:03.933Z,955.0306396
2023-02-28T00:42:04.719Z,954.9815674
2023-02-28T00:43:06.454Z,955.0351563
2023-02-28T00:44:07.276Z,955.019165
2023-02-28T00:45:08.523Z,954.9573364
2023-02-28T00:46:39.591Z,954.9855957
2023-02-28T00:47:40.370Z,955.0065918
2023-02-28T00:48:41.288Z,955.0167236
2023-02-28T00:49:42.102Z,955.0217285
2023-02-28T00:50:42.849Z,954.9890747
2023-02-28T00:51:44.444Z,954.9993896
2023-02-28T00:52:45.113Z,955.0065918
2023-02-28T00:53:45.897Z,954.9874878
2023-02-28T00:54:46.826Z,955.0303345
2023-02-28T00:55:47.642Z,954.9908447
2023-02-28T00:56:48.598Z,955.0012207
2023-02-28T00:57:49.302Z,955.0254517
2023-02-28T00:58:50.201Z,954.9879761
2023-02-28T00:59:50.921Z,954.9927368
2023-02-28T01:00:51.709Z,954.9749146
2023-02-28T01:01:53.297Z,954.9360962
2023-02-28T01:02:54.046Z,954.9910889
2023-02-28T01:03:55.737Z,955.0012207
2023-02-28T01:04:56.488Z,954.9664307
2023-02-28T01:05:57.202Z,954.9759521
2023-02-28T01:06:57.906Z,954.9296875
2023-02-28T01:07:58.706Z,954.9138794
2023-02-28T01:08:59.449Z,954.9586792
2023-02-28T01:10:00.759Z,954.9477539
2023-02-28T01:11:01.448Z,954.9762573
2023-02-28T01:12:02.808Z,954.9246826
2023-02-28T01:13:03.527Z,954.9251709
2023-02-28T01:14:04.409Z,954.9275513
2023-02-28T01:15:05.079Z,954.9168701
2023-02-28T01:16:05.983Z,954.8839111
2023-02-28T01:17:06.626Z,954.8950806
2023-02-28T01:18:07.415Z,954.8933105
2023-02-28T01:19:39.050Z,954.8693237
2023-02-28T01:20:39.769Z,954.9094238
2023-02-28T01:21:41.476Z,954.90625
2023-02-28T01:22:42.214Z,954.9413452
2023-02-28T01:23:42.935Z,954.920105
2023-02-28T01:24:43.657Z,954.8549194
2023-02-28T01:25:44.358Z,954.8515015
2023-02-28T01:26:45.180Z,954.8535767
2023-02-28T01:27:45.844Z,954.836853
2023-02-28T01:28:46.566Z,954.87677
2023-02-28T01:29:47.240Z,954.8961792
2023-02-28T01:30:48.928Z,954.8706055
2023-02-28T01:31:50.380Z,954.8817749
2023-02-28T01:32:51.240Z,954.8496094
2023-02-28T01:33:51.940Z,954.8982544
2023-02-28T01:34:52.638Z,954.8964233
2023-02-28T01:35:53.315Z,954.8671875
2023-02-28T01:36:55.001Z,954.8724365
2023-02-28T01:37:55.818Z,954.9135742
2023-02-28T01:38:56.626Z,954.8718872
2023-02-28T01:39:57.345Z,954.8703003
2023-02-28T01:40:58.015Z,954.8862305
2023-02-28T01:41:59.380Z,954.9104004
2023-02-28T01:43:00.087Z,954.93573
2023-02-28T01:44:00.829Z,954.8398438
2023-02-28T01:45:01.445Z,954.8781738
2023-02-28T01:46:02.321Z,954.8670044
2023-02-28T01:47:03.062Z,954.888916
2023-02-28T01:48:03.884Z,954.8585815
2023-02-28T01:49:05.213Z,954.8545532
2023-02-28T01:50:05.890Z,954.826416
2023-02-28T01:51:06.649Z,954.8032227
2023-02-28T01:52:38.648Z,954.788269
2023-02-28T01:53:39.374Z,954.8206787
2023-02-28T01:54:40.087Z,954.8015747
2023-02-28T01:55:41.758Z,954.8624878
2023-02-28T01:56:42.407Z,954.7874756
2023-02-28T01:57:43.272Z,954.8342896
2023-02-28T01:58:43.927Z,954.7922363
2023-02-28T01:59:44.735Z,954.8236084
2023-02-28T02:00:45.322Z,954.8117065
2023-02-28T02:01:47.070Z,954.7932739
2023-02-28T02:02:47.757Z,954.7970581
2023-02-28T02:03:48.555Z,954.7750244
2023-02-28T02:04:49.291Z,954.8364258
2023-02-28T02:05:49.964Z,954.796814
2023-02-28T02:06:51.364Z,954.7022095
2023-02-28T02:07:52.052Z,954.7648926
2023-02-28T02:08:52.769Z,954.772644
2023-02-28T02:09:53.476Z,954.7545166
2023-02-28T02:10:54.260Z,954.7728882
2023-02-28T02:11:55.870Z,954.743103
2023-02-28T02:12:56.668Z,954.6866455
2023-02-28T02:13:57.422Z,954.713501
2023-02-28T02:14:58.083Z,954.7084351
2023-02-28T02:15:58.914Z,954.6948242
2023-02-28T02:16:59.570Z,954.65979
2023-02-28T02:18:00.372Z,954.689209
2023-02-28T02:19:01.138Z,954.6751709
2023-02-28T02:20:01.797Z,954.6862793
2023-02-28T02:21:02.599Z,954.6783447
2023-02-28T02:22:03.881Z,954.6651001
2023-02-28T02:23:04.598Z,954.6656494
2023-02-28T02:24:05.258Z,954.6784668
2023-02-28T02:25:06.221Z,954.6872559
2023-02-28T02:26:07.394Z,954.6420288
2023-02-28T02:27:38.554Z,954.6253052
2023-02-28T02:28:39.251Z,954.6774902
2023-02-28T02:29:40.112Z,954.6467285
2023-02-28T02:30:41.903Z,954.6235352
2023-02-28T02:31:42.722Z,954.6665649
2023-02-28T02:32:44.208Z,954.5960693
2023-02-28T02:33:44.906Z,954.6456299
2023-02-28T02:34:45.666Z,954.6182861
2023-02-28T02:35:47.274Z,954.6185303
2023-02-28T02:36:48.054Z,954.6209106
2023-02-28T02:37:48.721Z,954.6323242
2023-02-28T02:38:49.439Z,954.6526489
2023-02-28T02:39:50.104Z,954.6361694
2023-02-28T02:40:50.838Z,954.6113892
2023-02-28T02:41:51.598Z,954.609375
2023-02-28T02:42:53.191Z,954.6221313
2023-02-28T02:43:54.041Z,954.6051025
2023-02-28T02:44:54.807Z,954.5878296
2023-02-28T02:45:55.537Z,954.5595093
2023-02-28T02:46:56.285Z,954.585144
2023-02-28T02:47:57.045Z,954.576416
2023-02-28T02:48:57.784Z,954.5742798
2023-02-28T02:49:58.497Z,954.578064
2023-02-28T02:50:59.375Z,954.5759277
2023-02-28T02:52:00.879Z,954.5568848
2023-02-28T02:53:01.599Z,954.5828857
2023-02-28T02:54:03.279Z,954.5512695
2023-02-28T02:55:04.171Z,954.5220337
2023-02-28T02:56:04.892Z,954.5706787
2023-02-28T02:57:05.827Z,954.5818481
2023-02-28T02:58:06.945Z,954.552124
2023-02-28T02:59:38.219Z,954.5499878
2023-02-28T03:00:39.004Z,954.5715332
2023-02-28T03:01:39.709Z,954.522644
2023-02-28T03:02:41.245Z,954.5215454
2023-02-28T03:03:42.058Z,954.538269
2023-02-28T03:04:42.806Z,954.5640869
2023-02-28T03:05:43.518Z,954.5622559
2023-02-28T03:06:44.475Z,954.5864868
2023-02-28T03:07:45.724Z,954.5650024
2023-02-28T03:08:46.430Z,954.5949707
2023-02-28T03:09:47.104Z,954.6056519
2023-02-28T03:10:47.776Z,954.6143799
2023-02-28T03:11:48.604Z,954.6034546
2023-02-28T03:12:50.251Z,954.6069336
2023-02-28T03:13:51.112Z,954.618103
2023-02-28T03:14:51.792Z,954.6454468
2023-02-28T03:15:52.637Z,954.5864258
2023-02-28T03:16:53.378Z,954.6308594
2023-02-28T03:17:54.040Z,954.611145
2023-02-28T03:18:55.743Z,954.6047363
2023-02-28T03:19:56.419Z,954.6348267
2023-02-28T03:20:57.251Z,954.6056519
2023-02-28T03:21:57.897Z,954.6185913
2023-02-28T03:22:59.239Z,954.6057739
2023-02-28T03:23:59.992Z,954.5822144
2023-02-28T03:25:00.666Z,954.5965576
2023-02-28T03:26:01.509Z,954.5617065
2023-02-28T03:27:02.223Z,954.5932617
2023-02-28T03:28:03.208Z,954.619873
2023-02-28T03:29:03.863Z,954.578186
2023-02-28T03:30:04.624Z,954.5736694
2023-02-28T03:31:05.356Z,954.586731
2023-02-28T03:32:06.293Z,954.5189209
2023-02-28T03:33:38.015Z,954.5441895
2023-02-28T03:34:38.714Z,954.5793457
2023-02-28T03:35:39.425Z,954.6210938
2023-02-28T03:36:40.265Z,954.555481
2023-02-28T03:37:41.922Z,954.5836182
2023-02-28T03:38:42.701Z,954.5960693
2023-02-28T03:39:43.391Z,954.6016235
2023-02-28T03:40:44.218Z,954.600647
2023-02-28T03:41:44.888Z,954.5979614
2023-02-28T03:42:46.399Z,954.5953369
2023-02-28T03:43:47.077Z,954.6192017
2023-02-28T03:44:47.879Z,954.5881348
2023-02-28T03:45:48.690Z,954.5949707
2023-02-28T03:46:49.347Z,954.5953369
2023-02-28T03:47:50.190Z,954.6029663
2023-02-28T03:48:51.452Z,954.6398926
2023-02-28T03:49:52.182Z,954.6617432
2023-02-28T03:50:52.841Z,954.6048584
2023-02-28T03:51:53.636Z,954.6303711
2023-02-28T03:52:54.907Z,954.632019
2023-02-28T03:53:55.573Z,954.6027832
2023-02-28T03:54:56.265Z,954.6340332
2023-02-28T03:55:57.062Z,954.6069336
2023-02-28T03:56:57.849Z,954.635498
2023-02-28T03:57:58.525Z,954.6287231
2023-02-28T03:58:59.380Z,954.6168213
2023-02-28T04:00:00.061Z,954.6144409
2023-02-28T04:01:00.952Z,954.6133423
2023-02-28T04:02:01.640Z,954.6654663
2023-02-28T04:03:03.360Z,954.6870117
2023-02-28T04:04:04.776Z,954.6920166
2023-02-28T04:05:05.446Z,954.6657715
2023-02-28T04:06:36.732Z,954.6922607
2023-02-28T04:07:37.561Z,954.7079468
2023-02-28T04:08:38.884Z,954.7374878
2023-02-28T04:09:39.617Z,954.7749023
2023-02-28T04:10:40.754Z,954.7493896
2023-02-28T04:11:41.408Z,954.7566528
2023-02-28T04:12:42.996Z,954.7815552
2023-02-28T04:13:44.727Z,954.7762451
2023-02-28T04:14:44.436Z,954.7842407
2023-02-28T04:15:45.459Z,954.7800293
2023-02-28T04:16:46.287Z,954.7712402
2023-02-28T04:17:47.136Z,954.7874756
2023-02-28T04:18:48.394Z,954.8188477
2023-02-28T04:19:49.239Z,954.8175049
2023-02-28T04:20:50.051Z,954.8297119
2023-02-28T04:21:50.987Z,954.8488159
2023-02-28T04:22:52.404Z,954.8527832
2023-02-28T04:23:53.253Z,954.8334351
2023-02-28T04:24:53.923Z,954.8272705
2023-02-28T04:25:54.924Z,954.84375
2023-02-28T04:26:55.818Z,954.8531494
2023-02-28T04:27:56.709Z,954.8326416
2023-02-28T04:28:57.557Z,954.8381958
2023-02-28T04:29:58.264Z,954.8917236
2023-02-28T04:30:59.118Z,954.9017334
2023-02-28T04:32:00.118Z,954.8337402
2023-02-28T04:33:01.394Z,954.8727417
2023-02-28T04:34:02.227Z,954.9118652
2023-02-28T04:35:03.230Z,954.8900146
2023-02-28T04:36:03.922Z,954.9160767
2023-02-28T04:37:13.283Z,954.9112549
2023-02-28T04:38:37.328Z,954.8922119
2023-02-28T04:39:38.345Z,954.892395
2023-02-28T04:40:39.031Z,954.892395
2023-02-28T04:41:39.836Z,954.9349976
2023-02-28T04:42:40.995Z,954.9413452
2023-02-28T04:43:42.393Z,954.9397583
2023-02-28T04:44:43.227Z,954.9418945
2023-02-28T04:45:44.112Z,954.9362793
2023-02-28T04:46:44.806Z,954.942627
2023-02-28T04:47:45.660Z,954.9465332
2023-02-28T04:48:46.510Z,954.97052
2023-02-28T04:49:47.422Z,955.000061
2023-02-28T04:50:48.242Z,954.9854126
2023-02-28T04:51:49.545Z,955.0245361
2023-02-28T04:52:50.403Z,954.9643555
2023-02-28T04:53:51.831Z,954.9753418
2023-02-28T04:54:52.765Z,954.9904785
2023-02-28T04:55:53.536Z,954.9649048
2023-02-28T04:56:54.419Z,954.9454956
2023-02-28T04:57:55.177Z,954.9916992
2023-02-28T04:58:56.089Z,954.9968262
2023-02-28T04:59:56.921Z,954.9765625
2023-02-28T05:00:57.902Z,954.9768066
2023-02-28T05:01:58.784Z,954.9852905
2023-02-28T05:02:59.445Z,954.9959106
2023-02-28T05:04:00.769Z,954.996582
2023-02-28T05:05:01.831Z,954.9972534
2023-02-28T05:06:02.589Z,955.0392456
2023-02-28T05:07:03.478Z,955.0177612
2023-02-28T05:08:04.242Z,954.9959106
2023-02-28T05:09:36.388Z,954.9967041
2023-02-28T05:10:37.222Z,955.0466919
2023-02-28T05:11:38.186Z,955.078125
2023-02-28T05:12:38.991Z,955.0664063
2023-02-28T05:13:40.261Z,955.0667114
2023-02-28T05:14:40.979Z,955.060791
2023-02-28T05:15:41.922Z,955.0861206
2023-02-28T05:16:42.791Z,955.0287476
2023-02-28T05:17:43.777Z,955.0300293
2023-02-28T05:18:44.588Z,955.0021973
2023-02-28T05:19:45.223Z,955.0621948
2023-02-28T05:20:46.152Z,955.071228
2023-02-28T05:21:46.964Z,955.0709229
2023-02-28T05:22:48.388Z,955.0675049
2023-02-28T05:23:49.893Z,955.0739136
2023-02-28T05:24:50.634Z,955.0932617
2023-02-28T05:25:51.376Z,955.1031494
2023-02-28T05:26:52.345Z,955.0734253
2023-02-28T05:27:53.196Z,955.0578003
2023-02-28T05:28:54.158Z,955.0957642
2023-02-28T05:29:54.803Z,955.0949097
2023-02-28T05:30:55.520Z,955.0901489
2023-02-28T05:31:56.460Z,955.1105957
2023-02-28T05:32:57.258Z,955.0639038
2023-02-28T05:33:58.824Z,955.0962524
2023-02-28T05:34:59.527Z,955.0620117
2023-02-28T05:36:00.313Z,955.1051025
2023-02-28T05:37:01.141Z,955.1040039
2023-02-28T05:38:01.987Z,955.1627197
2023-02-28T05:39:03.440Z,955.1164551
2023-02-28T05:40:04.338Z,955.1082764
2023-02-28T05:41:35.665Z,955.1207886
2023-02-28T05:42:36.367Z,955.0777588
2023-02-28T05:43:38.024Z,955.1359253
2023-02-28T05:44:38.890Z,955.1037598
2023-02-28T05:45:39.738Z,955.1133423
2023-02-28T05:46:40.762Z,955.0960693
2023-02-28T05:47:41.492Z,955.1213379
2023-02-28T05:48:42.380Z,955.0466309
2023-02-28T05:49:43.155Z,955.0714111
2023-02-28T05:50:44.168Z,955.0748291
2023-02-28T05:51:44.888Z,955.0646973
2023-02-28T05:52:45.722Z,955.0331421
2023-02-28T05:53:47.318Z,955.0508423
2023-02-28T05:54:48.945Z,955.0203247
2023-02-28T05:55:49.812Z,954.9945068
2023-02-28T05:56:50.639Z,954.9953003
2023-02-28T05:57:51.365Z,954.961792
2023-02-28T05:58:52.150Z,954.980957
2023-02-28T05:59:53.130Z,954.9703369
2023-02-28T06:00:54.007Z,954.9612427
2023-02-28T06:01:54.949Z,954.9581299
2023-02-28T06:02:55.441Z,954.9920044
2023-02-28T06:03:56.941Z,955.010498
2023-02-28T06:04:57.777Z,955.0282593
2023-02-28T06:05:59.453Z,955.0665894
2023-02-28T06:07:00.339Z,955.0934448
2023-02-28T06:08:01.063Z,955.1802979
2023-02-28T06:09:02.765Z,955.1525269
2023-02-28T06:10:03.620Z,955.1635742
2023-02-28T06:11:04.912Z,955.1623535
2023-02-28T06:12:36.319Z,955.1654663
2023-02-28T06:13:37.009Z,955.1553345
2023-02-28T06:14:38.914Z,955.1287231
2023-02-28T06:15:39.739Z,955.1574707
2023-02-28T06:16:40.891Z,955.1535034
2023-02-28T06:17:41.707Z,955.1604004
2023-02-28T06:18:42.561Z,955.1699829
2023-02-28T06:19:43.849Z,955.1721802
2023-02-28T06:20:44.635Z,955.156189
2023-02-28T06:21:45.621Z,955.1401367
2023-02-28T06:22:46.442Z,955.1463013
2023-02-28T06:23:48.341Z,955.1104126
2023-02-28T06:24:49.018Z,955.1738892
2023-02-28T06:25:50.141Z,955.1885986
2023-02-28T06:26:50.992Z,955.1704712
2023-02-28T06:27:51.923Z,955.225769
2023-02-28T06:28:52.657Z,955.1832275
2023-02-28T06:29:53.391Z,955.2201538
2023-02-28T06:30:54.792Z,955.2193604
2023-02-28T06:31:55.729Z,955.1659546
2023-02-28T06:32:56.503Z,955.2034302
2023-02-28T06:33:57.894Z,955.243103
2023-02-28T06:34:58.637Z,955.199707
2023-02-28T06:35:59.467Z,955.2287598
2023-02-28T06:37:00.233Z,955.2243652
2023-02-28T06:38:01.108Z,955.1906128
2023-02-28T06:39:02.939Z,955.2193604
2023-02-28T06:40:03.757Z,955.2179565
2023-02-28T06:41:48.098Z,955.2512207
2023-02-28T06:42:35.952Z,955.2595215
2023-02-28T06:43:36.934Z,955.2938232
2023-02-28T06:44:38.325Z,955.2921753
2023-02-28T06:45:39.173Z,955.3515015
2023-02-28T06:46:39.877Z,955.3927612
2023-02-28T06:47:40.934Z,955.4179688
2023-02-28T06:48:41.887Z,955.4631958
2023-02-28T06:49:42.828Z,955.4151611
2023-02-28T06:50:43.689Z,955.4882813
2023-02-28T06:51:44.478Z,955.4515381
2023-02-28T06:52:45.193Z,955.460083
2023-02-28T06:53:46.029Z,955.4445801
2023-02-28T06:54:47.906Z,955.4857788
2023-02-28T06:55:48.723Z,955.4398193
2023-02-28T06:56:49.491Z,955.5286865
2023-02-28T06:57:50.200Z,955.5154419
2023-02-28T06:58:51.115Z,955.4885254
2023-02-28T06:59:51.942Z,955.5111084
2023-02-28T07:00:52.825Z,955.5111084
2023-02-28T07:01:53.740Z,955.503418
2023-02-28T07:02:54.334Z,955.503418
2023-02-28T07:03:55.919Z,955.5140381
2023-02-28T07:04:56.750Z,955.5246582
2023-02-28T07:05:58.432Z,955.5039063
2023-02-28T07:06:59.265Z,955.5053101
2023-02-28T07:08:00.072Z,955.5002441
2023-02-28T07:09:00.770Z,955.5499268
2023-02-28T07:10:01.458Z,955.5098267
2023-02-28T07:11:02.312Z,955.5459595
2023-02-28T07:12:03.227Z,955.5834351
2023-02-28T07:13:34.673Z,955.6012573
2023-02-28T07:14:36.196Z,955.5869751
2023-02-28T07:15:40.177Z,955.6334229
2023-02-28T07:16:37.843Z,955.6135864
2023-02-28T07:17:38.730Z,955.6618652
2023-02-28T07:18:40.335Z,955.6273193
2023-02-28T07:19:41.104Z,955.6837769
2023-02-28T07:20:41.844Z,955.7081909
2023-02-28T07:21:42.711Z,955.6629639
2023-02-28T07:22:43.571Z,955.7127075
2023-02-28T07:23:44.414Z,955.6326294
2023-02-28T07:24:45.780Z,955.6669312
2023-02-28T07:25:46.479Z,955.6190796
2023-02-28T07:26:47.309Z,955.6295166
2023-02-28T07:27:48.082Z,955.5871582
2023-02-28T07:28:50.244Z,955.5752563
2023-02-28T07:29:50.553Z,955.6087646
2023-02-28T07:30:51.468Z,955.6174927
2023-02-28T07:31:52.228Z,955.6074219
2023-02-28T07:32:53.103Z,955.6124878
2023-02-28T07:33:53.938Z,955.588501
2023-02-28T07:34:55.186Z,955.5877075
2023-02-28T07:35:55.953Z,955.576355
2023-02-28T07:36:56.708Z,955.6048584
2023-02-28T07:37:57.631Z,955.5704956
2023-02-28T07:38:59.380Z,955.6082764
2023-02-28T07:40:00.256Z,955.5802612
2023-02-28T07:41:00.932Z,955.6148682
2023-02-28T07:42:01.829Z,955.5784302
2023-02-28T07:43:02.606Z,955.5968628
2023-02-28T07:44:03.977Z,955.5744629
2023-02-28T07:45:35.700Z,955.552124
2023-02-28T07:46:37.103Z,955.6358643
2023-02-28T07:47:37.087Z,955.6182861
2023-02-28T07:48:38.483Z,955.6353149
2023-02-28T07:49:39.363Z,955.673584
2023-02-28T07:50:40.219Z,955.7053223
2023-02-28T07:51:41.007Z,955.673584
2023-02-28T07:52:41.698Z,955.6600952
2023-02-28T07:53:42.639Z,955.6637573
2023-02-28T07:54:44.387Z,955.6618652
2023-02-28T07:55:45.360Z,955.6685791
2023-02-28T07:56:46.061Z,955.6802979
2023-02-28T07:57:46.806Z,955.6107788
2023-02-28T07:58:47.544Z,955.6082153
2023-02-28T07:59:48.391Z,955.6369019
2023-02-28T08:00:49.264Z,955.626709
2023-02-28T08:01:50.127Z,955.5740356
2023-02-28T08:02:51.364Z,955.6043701
2023-02-28T08:03:52.233Z,955.5968628
2023-02-28T08:04:53.879Z,955.6333618
2023-02-28T08:05:54.748Z,955.6141357
2023-02-28T08:06:55.563Z,955.6665649
2023-02-28T08:07:56.302Z,955.6833496
2023-02-28T08:08:57.646Z,955.6977539
2023-02-28T08:09:58.595Z,955.7150269
2023-02-28T08:10:59.493Z,955.7072754
2023-02-28T08:12:00.891Z,955.6965332
2023-02-28T08:13:01.697Z,955.7165527
2023-02-28T08:14:02.370Z,955.7834473
2023-02-28T08:15:34.345Z,955.7823486
2023-02-28T08:16:35.944Z,955.7546997
2023-02-28T08:17:36.789Z,955.7884521
2023-02-28T08:18:37.438Z,955.8078003
2023-02-28T08:19:38.906Z,955.7979736
2023-02-28T08:20:39.680Z,955.7793579
2023-02-28T08:21:40.827Z,955.7984619
2023-02-28T08:22:43.658Z,955.7625732
2023-02-28T08:23:42.580Z,955.8161011
2023-02-28T08:24:43.838Z,955.7804565
2023-02-28T08:25:44.598Z,955.7718506
2023-02-28T08:26:45.513Z,955.788147
2023-02-28T08:27:46.437Z,955.7321777
2023-02-28T08:28:47.269Z,955.7260132
2023-02-28T08:29:48.059Z,955.7637329
2023-02-28T08:30:48.794Z,955.8098145
2023-02-28T08:31:49.819Z,955.8065796
2023-02-28T08:32:50.550Z,955.7793579
2023-02-28T08:33:51.451Z,955.7963867
2023-02-28T08:34:52.863Z,955.8095093
2023-02-28T08:35:53.788Z,955.8197021
2023-02-28T08:36:54.526Z,955.8379517
2023-02-28T08:37:55.417Z,955.8222046
2023-02-28T08:38:56.299Z,955.8156128
2023-02-28T08:39:57.002Z,955.8051758
2023-02-28T08:40:57.713Z,955.8498535
2023-02-28T08:42:07.262Z,955.8618164
2023-02-28T08:42:59.515Z,955.855957
2023-02-28T08:44:00.338Z,955.871582
2023-02-28T08:45:02.027Z,955.887207
2023-02-28T08:46:03.226Z,955.914856
2023-02-28T08:47:34.473Z,955.9342041
2023-02-28T08:48:35.309Z,955.9179688
2023-02-28T08:49:36.918Z,955.9597168
2023-02-28T08:50:37.590Z,955.9487305
2023-02-28T08:51:38.399Z,955.9447021
2023-02-28T08:52:39.147Z,955.9659424
2023-02-28T08:53:40.982Z,955.9213867
2023-02-28T08:54:41.818Z,955.8912354
2023-02-28T08:55:43.166Z,955.8551636
2023-02-28T08:56:44.102Z,955.8533325
2023-02-28T08:57:44.812Z,955.8911133
2023-02-28T08:58:45.684Z,955.9128418
2023-02-28T08:59:46.499Z,955.9450684
2023-02-28T09:00:47.180Z,955.907959
2023-02-28T09:01:47.900Z,955.9291992
2023-02-28T09:02:48.575Z,955.9384155
2023-02-28T09:03:49.551Z,955.9880371
2023-02-28T09:04:50.888Z,955.9542236
2023-02-28T09:05:51.756Z,955.9863892
2023-02-28T09:06:52.509Z,955.9893799
2023-02-28T09:07:53.165Z,955.9543457
2023-02-28T09:08:54.256Z,956.0023193
2023-02-28T09:09:55.144Z,956.0128174
2023-02-28T09:10:56.035Z,956.0229492
2023-02-28T09:11:56.751Z,956.0563965
2023-02-28T09:12:57.556Z,956.0591431
2023-02-28T09:13:58.397Z,956.1049194
2023-02-28T09:14:59.875Z,956.0836182
2023-02-28T09:16:00.737Z,956.0942383
2023-02-28T09:17:01.505Z,956.1005249
2023-02-28T09:18:02.181Z,956.0187378
2023-02-28T09:19:34.506Z,956.0410767
2023-02-28T09:20:35.357Z,956.0351563
2023-02-28T09:21:36.176Z,956.0239258
2023-02-28T09:22:36.912Z,956.0360718
2023-02-28T09:23:37.562Z,956.052002
2023-02-28T09:24:38.508Z,956.071167
2023-02-28T09:25:40.316Z,956.0724487
2023-02-28T09:26:47.344Z,956.0977173
2023-02-28T09:27:42.467Z,956.1552124
2023-02-28T09:28:42.842Z,956.0923462
2023-02-28T09:29:43.548Z,956.0991211
2023-02-28T09:30:44.477Z,956.1204834
2023-02-28T09:31:45.322Z,956.1228027
2023-02-28T09:32:46.070Z,956.1481323
2023-02-28T09:33:46.892Z,956.1809082
2023-02-28T09:34:47.651Z,956.1740723
2023-02-28T09:35:49.370Z,956.1551514
2023-02-28T09:36:50.860Z,956.1079712
2023-02-28T09:37:51.062Z,956.0646362
2023-02-28T09:38:51.776Z,956.0672607
2023-02-28T09:39:52.640Z,956.0332031
2023-02-28T09:40:53.502Z,956.1009521
2023-02-28T09:41:54.361Z,956.0512695
2023-02-28T09:42:55.174Z,956.0462646
2023-02-28T09:43:55.864Z,956.0507813
2023-02-28T09:44:56.610Z,956.0408325
2023-02-28T09:45:58.358Z,955.9958496
2023-02-28T09:46:59.213Z,956.0296631
2023-02-28T09:48:00.075Z,956.0575562
2023-02-28T09:49:00.886Z,956.0668945
2023-02-28T09:50:01.613Z,956.0513916
2023-02-28T09:51:33.310Z,956.0617065
2023-02-28T09:52:34.119Z,956.0770264
2023-02-28T09:53:35.965Z,956.0806274
2023-02-28T09:54:36.700Z,956.0742188
2023-02-28T09:55:46.312Z,956.0440674
2023-02-28T09:56:39.247Z,956.0510864
2023-02-28T09:57:40.236Z,956.0651855
2023-02-28T09:58:41.134Z,956.0758057
2023-02-28T09:59:42.033Z,956.0587769
2023-02-28T10:00:42.805Z,956.0690918
2023-02-28T10:01:43.618Z,956.0401001
2023-02-28T10:02:44.506Z,956.0193481
2023-02-28T10:03:45.338Z,956.0178223
2023-02-28T10:04:46.208Z,955.9987793
2023-02-28T10:05:47.645Z,956.0679932
2023-02-28T10:06:48.461Z,955.9938965
2023-02-28T10:07:49.284Z,955.9927979
2023-02-28T10:08:50.313Z,956.0388794
2023-02-28T10:09:51.861Z,956.050293
2023-02-28T10:10:52.705Z,956.0814209
2023-02-28T10:11:54.478Z,956.0917358
2023-02-28T10:12:54.226Z,956.1049805
2023-02-28T10:13:55.215Z,956.0859985
2023-02-28T10:14:56.072Z,956.1043701
2023-02-28T10:15:57.901Z,956.112793
2023-02-28T10:16:58.502Z,956.0935669
2023-02-28T10:18:08.573Z,956.0834351
2023-02-28T10:19:00.214Z,956.0908813
2023-02-28T10:20:01.100Z,956.1286011
2023-02-28T10:21:32.652Z,956.1330566
2023-02-28T10:22:33.430Z,956.1420288
2023-02-28T10:23:34.248Z,956.1528931
2023-02-28T10:24:35.252Z,956.1552124
2023-02-28T10:25:36.862Z,956.1314087
2023-02-28T10:26:37.552Z,956.131897
2023-02-28T10:27:38.188Z,956.1245117
2023-02-28T10:28:39.168Z,956.114502
2023-02-28T10:29:40.099Z,956.1003418
2023-02-28T10:30:41.232Z,956.1303711
2023-02-28T10:31:41.876Z,956.057373
2023-02-28T10:32:42.684Z,956.0702515
2023-02-28T10:33:43.549Z,956.03125
2023-02-28T10:34:44.351Z,956.0300293
2023-02-28T10:35:45.895Z,956.0614014
2023-02-28T10:36:46.674Z,956.0351563
2023-02-28T10:37:47.383Z,956.029541
2023-02-28T10:38:48.091Z,956.0822144
2023-02-28T10:39:49.982Z,956.0387573
2023-02-28T10:40:50.838Z,956.0942383
2023-02-28T10:41:53.261Z,956.1074829
2023-02-28T10:42:52.507Z,956.081543
2023-02-28T10:43:53.270Z,956.1454468
2023-02-28T10:44:58.453Z,956.1677856
2023-02-28T10:45:59.880Z,956.1125488
2023-02-28T10:47:00.778Z,956.1281128
2023-02-28T10:48:32.514Z,956.1168823
2023-02-28T10:49:33.267Z,956.126709
2023-02-28T10:50:34.132Z,956.1415405
2023-02-28T10:51:34.920Z,956.1464233
2023-02-28T10:52:35.757Z,956.1442261
2023-02-28T10:53:52.581Z,956.1674194
2023-02-28T10:54:38.163Z,956.1688232
2023-02-28T10:55:39.914Z,956.1599731
2023-02-28T10:56:40.992Z,956.1378174
2023-02-28T10:57:41.892Z,956.1704712
2023-02-28T10:58:42.704Z,956.1537476
2023-02-28T10:59:43.410Z,956.1617432
2023-02-28T11:00:44.275Z,956.1978149
2023-02-28T11:01:45.114Z,956.09021
2023-02-28T11:02:46.906Z,956.0965576
2023-02-28T11:03:47.703Z,956.0733643
2023-02-28T11:04:49.637Z,956.1496582
2023-02-28T11:05:49.981Z,956.1063843
2023-02-28T11:06:50.817Z,956.1099854
2023-02-28T11:07:53.411Z,956.1363525
2023-02-28T11:08:52.568Z,956.1437378
2023-02-28T11:09:53.814Z,956.1254883
2023-02-28T11:10:54.654Z,956.1107788